Airfield :
LOGIN :

Register | Disclaimer

   EN    FR    IT 

 










Legend :    VFR   Marginal VFR   IFR   Intensive IFR   Very Intensive IFR
Visi :
Ceiling :
>= 8 km
>= 3000ft
5 to 8 km
1000 to 3000 ft
1500m to 5 km
500 to 1000 ft
800 to 1500m
200 to 500 ft
< 800m
< 200 ft
Symbols :   Thunderstorms  Fog  Heavy snow  Heavy precipitations  Wind > 20 kt
SIGMETs :     Misc.  Thunderstorms  Icing  Turbulence  Mountain Waves  Volcanic Ashes







- Airport Elevation : 74 ft
- IATA code : MRS
- Download approach charts


LFML - Marseille / Marignane

CURRENT METAR :
  • 170900Z AUTO 03005KT 9999 -RA ///TCU 12/08 Q1020 TEMPO 13010KT BKN050

EXPIRED METARs :
  • 170830Z AUTO 36005KT 9999 FEW010/// BKN054/// OVC074/// ///TCU 12/08 Q1020 TEMPO 13010KT BKN050
  • 170800Z AUTO 00000KT 9000 -RA ///TCU 12/09 Q1020 TEMPO 13010KT BKN050
  • 170730Z AUTO 17003KT 9999 -RA ///TCU 12/09 Q1020 TEMPO BKN050
  • 170700Z AUTO 17001KT 9999 -RA ///TCU 12/08 Q1020 TEMPO BKN050
  • 170630Z AUTO 00000KT 9999 ///TCU 12/09 Q1020 BECMG BKN030 BKN045

TAF TAF LFML
Valid from the 17 at 09:00 until the 18 at 15:00 UTC


170800Z 1709/1815 VRB03KT CAVOK TX15/1710Z TN07/1802Z
TEMPO 1709/1712 13010KT -RA BKN050
TEMPO 1713/1715 VRB08KT SCT050
TEMPO 1715/1815 08010KT
ATIS : +33 4 42 31 15 15
No reported NOTAMs for that airfield.



MET'MAP, your aeronautical weather chart ! - Copyright ORBIFLY December 2007 - Disclaimer

ORBIFLY MET'MAP TEAM :

Programming & Development : Alexandra Zaïnal
Concept & Development : Baudouin d'Aumeries
Co-Development & Prog : Marc-Olivier Méhu
Technical & hardware support : Manuel Goepfert

Contact : metmap@orbifly.com




SOURCES & CREDITS :

   NOAA